createdAt,value
2018-05-31T00:00:04.270Z,23.00
2018-05-31T00:02:31.872Z,23.00
2018-05-31T00:04:59.402Z,23.00
2018-05-31T00:07:26.908Z,23.00
2018-05-31T00:09:55.296Z,22.90
2018-05-31T00:12:23.562Z,22.90
2018-05-31T00:14:51.134Z,22.90
2018-05-31T00:17:18.692Z,22.90
2018-05-31T00:19:46.191Z,22.90
2018-05-31T00:22:14.468Z,22.90
2018-05-31T00:24:42.738Z,23.10
2018-05-31T00:27:11.010Z,23.00
2018-05-31T00:29:38.543Z,23.00
2018-05-31T00:32:06.044Z,22.90
2018-05-31T00:34:33.534Z,22.90
2018-05-31T00:37:01.888Z,22.90
2018-05-31T00:39:29.394Z,22.80
2018-05-31T00:41:57.019Z,22.80
2018-05-31T00:44:24.585Z,22.80
2018-05-31T00:46:52.147Z,22.80
2018-05-31T00:49:19.708Z,22.80
2018-05-31T00:51:47.239Z,22.80
2018-05-31T00:54:14.759Z,22.80
2018-05-31T00:56:43.029Z,22.80
2018-05-31T00:59:10.593Z,22.80
2018-05-31T01:01:38.852Z,22.70
2018-05-31T01:04:06.438Z,22.80
2018-05-31T01:06:33.959Z,22.70
2018-05-31T01:09:01.468Z,22.70
2018-05-31T01:11:28.965Z,22.70
2018-05-31T01:13:56.506Z,22.70
2018-05-31T01:16:24.010Z,22.70
2018-05-31T01:18:51.568Z,22.70
2018-05-31T01:21:19.820Z,22.70
2018-05-31T01:23:48.090Z,22.70
2018-05-31T01:26:15.590Z,22.60
2018-05-31T01:28:43.106Z,22.70
2018-05-31T01:31:10.618Z,22.60
2018-05-31T01:33:38.110Z,22.60
2018-05-31T01:36:05.627Z,22.60
2018-05-31T01:38:33.993Z,22.60
2018-05-31T01:41:01.520Z,22.60
2018-05-31T01:43:29.039Z,22.60
2018-05-31T01:45:56.589Z,22.60
2018-05-31T01:48:24.110Z,22.60
2018-05-31T01:50:51.620Z,22.50
2018-05-31T01:53:19.128Z,22.50
2018-05-31T01:55:46.640Z,22.50
2018-05-31T01:58:14.196Z,22.50
2018-05-31T02:00:41.785Z,22.50
2018-05-31T02:03:09.312Z,22.50
2018-05-31T02:05:36.823Z,22.50
2018-05-31T02:08:05.103Z,22.50
2018-05-31T02:10:32.663Z,22.50
2018-05-31T02:13:00.162Z,22.50
2018-05-31T02:15:27.682Z,22.50
2018-05-31T02:17:55.217Z,22.50
2018-05-31T02:20:22.844Z,22.50
2018-05-31T02:22:51.101Z,22.50
2018-05-31T02:25:18.617Z,22.50
2018-05-31T02:27:46.106Z,22.50
2018-05-31T02:30:13.608Z,22.40
2018-05-31T02:32:41.135Z,22.40
2018-05-31T02:35:08.643Z,22.40
2018-05-31T02:37:36.906Z,22.40
2018-05-31T02:40:04.417Z,22.40
2018-05-31T02:42:31.923Z,22.40
2018-05-31T02:44:59.453Z,22.40
2018-05-31T02:47:26.970Z,22.50
2018-05-31T02:49:54.530Z,22.50
2018-05-31T02:52:22.109Z,22.50
2018-05-31T02:54:49.608Z,22.50
2018-05-31T02:57:17.136Z,22.40
2018-05-31T02:59:44.702Z,22.40
2018-05-31T03:02:12.212Z,22.40
2018-05-31T03:04:39.714Z,22.40
2018-05-31T03:07:07.218Z,22.30
2018-05-31T03:09:34.745Z,22.30
2018-05-31T03:12:02.313Z,22.30
2018-05-31T03:14:29.884Z,22.30
2018-05-31T03:16:57.381Z,22.30
2018-05-31T03:19:24.869Z,22.20
2018-05-31T03:21:52.387Z,22.20
2018-05-31T03:24:20.666Z,22.20
2018-05-31T03:26:48.217Z,22.10
2018-05-31T03:29:15.789Z,22.10
2018-05-31T03:31:43.278Z,22.10
2018-05-31T03:34:11.639Z,22.10
2018-05-31T03:36:40.640Z,22.10
2018-05-31T03:39:08.917Z,22.10
2018-05-31T03:41:36.490Z,22.00
2018-05-31T03:44:03.999Z,22.10
2018-05-31T03:46:31.501Z,22.00
2018-05-31T03:48:58.988Z,22.00
2018-05-31T03:51:27.251Z,22.00
2018-05-31T03:53:54.841Z,22.00
2018-05-31T03:56:22.343Z,22.00
2018-05-31T03:58:49.865Z,22.00
2018-05-31T04:01:17.370Z,22.00
2018-05-31T04:03:44.860Z,22.00
2018-05-31T04:06:12.369Z,22.00
2018-05-31T04:08:40.644Z,22.00
2018-05-31T04:11:08.207Z,22.00
2018-05-31T04:13:36.589Z,22.00
2018-05-31T04:16:04.105Z,22.00
2018-05-31T04:18:31.611Z,22.10
2018-05-31T04:20:59.177Z,22.10
2018-05-31T04:23:26.698Z,22.00
2018-05-31T04:25:54.222Z,22.00
2018-05-31T04:28:22.603Z,22.00
2018-05-31T04:30:50.876Z,22.00
2018-05-31T04:33:18.434Z,22.00
2018-05-31T04:35:45.960Z,22.00
2018-05-31T04:38:13.469Z,22.00
2018-05-31T04:40:40.985Z,22.00
2018-05-31T04:43:08.505Z,22.00
2018-05-31T04:45:36.025Z,22.00
2018-05-31T04:48:03.637Z,22.00
2018-05-31T04:50:31.244Z,22.00
2018-05-31T04:52:58.752Z,22.10
2018-05-31T04:55:26.335Z,22.00
2018-05-31T04:57:53.897Z,22.10
2018-05-31T05:00:21.463Z,22.10
2018-05-31T05:02:49.033Z,22.10
2018-05-31T05:05:16.600Z,22.10
2018-05-31T05:07:44.101Z,22.10
2018-05-31T05:10:11.596Z,22.10
2018-05-31T05:12:39.116Z,22.10
2018-05-31T05:15:07.380Z,22.10
2018-05-31T05:17:35.765Z,22.10
2018-05-31T05:20:04.043Z,22.10
2018-05-31T05:22:31.548Z,22.10
2018-05-31T05:24:59.143Z,22.10
2018-05-31T05:27:26.731Z,22.10
2018-05-31T05:29:54.313Z,22.10
2018-05-31T05:32:22.589Z,22.20
2018-05-31T05:34:50.162Z,22.10
2018-05-31T05:37:18.521Z,22.20
2018-05-31T05:39:46.802Z,22.20
2018-05-31T05:42:14.321Z,22.20
2018-05-31T05:44:41.836Z,22.20
2018-05-31T05:47:09.423Z,22.20
2018-05-31T05:49:37.799Z,22.20
2018-05-31T05:52:05.303Z,22.20
2018-05-31T05:54:32.823Z,22.20
2018-05-31T05:57:00.387Z,22.30
2018-05-31T05:59:27.907Z,22.30
2018-05-31T06:01:55.511Z,22.30
2018-05-31T06:04:22.997Z,22.30
2018-05-31T06:06:51.383Z,22.30
2018-05-31T06:09:19.653Z,22.30
2018-05-31T06:11:47.224Z,22.30
2018-05-31T06:14:14.785Z,22.30
2018-05-31T06:16:42.297Z,22.30
2018-05-31T06:19:09.806Z,22.30
2018-05-31T06:21:37.320Z,22.30
2018-05-31T06:24:04.856Z,22.30
2018-05-31T06:26:33.167Z,22.40
2018-05-31T06:29:01.514Z,22.40
2018-05-31T06:31:29.085Z,22.40
2018-05-31T06:33:57.367Z,22.40
2018-05-31T06:36:25.738Z,22.40
2018-05-31T06:38:53.253Z,22.40
2018-05-31T06:41:20.749Z,22.40
2018-05-31T06:43:48.342Z,22.50
2018-05-31T06:46:15.914Z,22.50
2018-05-31T06:48:43.407Z,22.50
2018-05-31T06:51:10.977Z,22.50
2018-05-31T06:53:38.480Z,22.60
2018-05-31T06:56:06.162Z,22.60
2018-05-31T06:58:33.667Z,22.60
2018-05-31T07:01:01.163Z,22.70
2018-05-31T07:03:28.766Z,22.70
2018-05-31T07:05:56.321Z,22.70
2018-05-31T07:08:23.821Z,22.80
2018-05-31T07:10:52.181Z,22.90
2018-05-31T07:13:19.700Z,22.90
2018-05-31T07:15:47.304Z,22.90
2018-05-31T07:18:14.787Z,23.00
2018-05-31T07:20:43.160Z,23.00
2018-05-31T07:23:11.457Z,23.10
2018-05-31T07:25:39.839Z,23.10
2018-05-31T07:28:08.220Z,23.10
2018-05-31T07:30:35.720Z,23.10
2018-05-31T07:33:03.216Z,23.10
2018-05-31T07:35:30.762Z,23.10
2018-05-31T07:37:58.265Z,23.10
2018-05-31T07:40:25.845Z,23.20
2018-05-31T07:42:53.344Z,23.20
2018-05-31T07:45:20.844Z,23.20
2018-05-31T07:47:48.346Z,23.20
2018-05-31T07:50:16.720Z,23.30
2018-05-31T07:52:44.236Z,23.20
2018-05-31T07:55:11.733Z,23.30
2018-05-31T07:57:39.302Z,23.30
2018-05-31T08:00:06.814Z,23.30
2018-05-31T08:02:34.311Z,23.30
2018-05-31T08:05:01.897Z,23.30
2018-05-31T08:07:29.422Z,23.40
2018-05-31T08:09:56.946Z,23.40
2018-05-31T08:12:25.218Z,23.40
2018-05-31T08:14:52.778Z,23.40
2018-05-31T08:17:20.358Z,23.40
2018-05-31T08:19:48.736Z,23.40
2018-05-31T08:22:17.022Z,23.50
2018-05-31T08:24:44.574Z,23.40
2018-05-31T08:27:13.575Z,23.50
2018-05-31T08:29:41.145Z,23.50
2018-05-31T08:32:08.707Z,23.50
2018-05-31T08:34:37.003Z,23.60
2018-05-31T08:37:05.266Z,23.50
2018-05-31T08:39:32.838Z,23.50
2018-05-31T08:42:01.098Z,23.60
2018-05-31T08:44:28.586Z,23.60
2018-05-31T08:46:57.583Z,23.60
2018-05-31T08:49:25.146Z,23.60
2018-05-31T08:51:52.698Z,23.60
2018-05-31T08:54:20.272Z,23.60
2018-05-31T08:56:47.789Z,23.60
2018-05-31T08:59:15.302Z,23.70
2018-05-31T09:01:43.611Z,23.70
2018-05-31T09:04:11.988Z,23.70
2018-05-31T09:06:39.516Z,23.70
2018-05-31T09:09:07.116Z,23.70
2018-05-31T09:11:34.594Z,23.70
2018-05-31T09:14:02.946Z,23.70
2018-05-31T09:16:30.484Z,23.70
2018-05-31T09:18:58.005Z,23.80
2018-05-31T09:21:26.256Z,23.80
2018-05-31T09:23:53.770Z,23.70
2018-05-31T09:26:21.270Z,23.70
2018-05-31T09:28:48.820Z,23.80
2018-05-31T09:31:16.326Z,23.80
2018-05-31T09:33:43.887Z,23.80
2018-05-31T09:36:11.464Z,23.80
2018-05-31T09:38:39.045Z,23.80
2018-05-31T09:41:07.451Z,23.80
2018-05-31T09:43:35.745Z,23.90
2018-05-31T09:46:03.982Z,23.90
2018-05-31T09:48:31.468Z,23.90
2018-05-31T09:50:59.816Z,23.90
2018-05-31T09:53:27.384Z,23.90
2018-05-31T09:55:54.893Z,24.00
2018-05-31T09:58:22.391Z,24.00
2018-05-31T10:00:49.989Z,24.00
2018-05-31T10:03:17.542Z,24.00
2018-05-31T10:05:45.127Z,24.00
2018-05-31T10:08:13.502Z,24.00
2018-05-31T10:10:41.068Z,24.00
2018-05-31T10:13:08.626Z,24.00
2018-05-31T10:15:36.155Z,24.00
2018-05-31T10:18:03.676Z,24.00
2018-05-31T10:20:31.940Z,24.00
2018-05-31T10:22:59.518Z,24.00
2018-05-31T10:25:27.021Z,24.10
2018-05-31T10:27:54.520Z,24.10
2018-05-31T10:30:22.026Z,24.10
2018-05-31T10:32:50.290Z,24.10
2018-05-31T10:37:51.732Z,24.10
2018-05-31T10:40:19.232Z,24.10
2018-05-31T10:42:46.743Z,24.10
2018-05-31T10:45:14.239Z,24.10
2018-05-31T10:47:41.732Z,24.10
2018-05-31T10:50:09.991Z,24.20
2018-05-31T10:52:37.563Z,24.20
2018-05-31T10:55:05.145Z,24.20
2018-05-31T10:57:32.637Z,24.20
2018-05-31T11:00:00.139Z,24.20
2018-05-31T11:02:27.734Z,24.20
2018-05-31T11:04:55.219Z,24.20
2018-05-31T11:07:23.581Z,24.20
2018-05-31T11:09:51.148Z,24.20
2018-05-31T11:12:18.643Z,24.20
2018-05-31T11:14:46.144Z,24.20
2018-05-31T11:17:13.634Z,24.20
2018-05-31T11:19:41.205Z,24.20
2018-05-31T11:22:08.773Z,24.20
2018-05-31T11:24:36.284Z,24.20
2018-05-31T11:27:03.778Z,24.30
2018-05-31T11:29:31.364Z,24.20
2018-05-31T11:31:58.879Z,24.30
2018-05-31T11:34:26.372Z,24.30
2018-05-31T11:36:53.871Z,24.30
2018-05-31T11:39:22.158Z,24.30
2018-05-31T11:41:50.423Z,24.30
2018-05-31T11:44:17.993Z,24.30
2018-05-31T11:46:45.588Z,24.40
2018-05-31T11:49:13.079Z,24.40
2018-05-31T11:51:40.581Z,24.40
2018-05-31T11:54:08.066Z,24.40
2018-05-31T11:56:36.595Z,24.40
2018-05-31T11:59:04.206Z,24.40
2018-05-31T12:01:31.770Z,24.40
2018-05-31T12:03:59.257Z,24.40
2018-05-31T12:06:27.606Z,24.50
2018-05-31T12:08:55.185Z,24.40
2018-05-31T12:11:23.459Z,24.50
2018-05-31T12:13:51.033Z,24.50
2018-05-31T12:16:18.535Z,24.50
2018-05-31T12:18:46.044Z,24.50
2018-05-31T12:21:13.550Z,24.50
2018-05-31T12:23:41.107Z,24.60
2018-05-31T12:26:09.471Z,24.60
2018-05-31T12:28:36.973Z,24.60
2018-05-31T12:31:04.483Z,24.60
2018-05-31T12:33:32.003Z,24.60
2018-05-31T12:35:59.535Z,24.70
2018-05-31T12:38:27.073Z,24.70
2018-05-31T12:40:54.651Z,24.70
2018-05-31T12:43:22.150Z,24.70
2018-05-31T12:45:50.419Z,24.70
2018-05-31T12:48:18.685Z,24.70
2018-05-31T12:50:46.259Z,24.70
2018-05-31T12:53:13.763Z,24.70
2018-05-31T12:55:41.287Z,24.70
2018-05-31T12:58:08.803Z,24.80
2018-05-31T13:00:36.321Z,24.80
2018-05-31T13:03:03.821Z,24.80
2018-05-31T13:05:31.361Z,24.80
2018-05-31T13:07:59.735Z,25.00
2018-05-31T13:10:27.247Z,25.00
2018-05-31T13:12:54.851Z,25.00
2018-05-31T13:15:22.421Z,25.00
2018-05-31T13:17:49.946Z,25.10
2018-05-31T13:20:17.543Z,25.10
2018-05-31T13:22:45.123Z,25.10
2018-05-31T13:25:12.730Z,25.10
2018-05-31T13:27:40.226Z,25.10
2018-05-31T13:30:07.717Z,25.20
2018-05-31T13:32:35.283Z,25.20
2018-05-31T13:35:02.779Z,25.20
2018-05-31T13:37:30.285Z,25.20
2018-05-31T13:39:57.877Z,25.20
2018-05-31T13:42:25.441Z,25.30
2018-05-31T13:44:53.014Z,25.30
2018-05-31T13:47:20.535Z,25.30
2018-05-31T13:49:48.081Z,25.30
2018-05-31T13:52:15.604Z,25.30
2018-05-31T13:54:43.191Z,25.30
2018-05-31T13:57:11.553Z,25.30
2018-05-31T13:59:39.088Z,25.30
2018-05-31T14:02:06.685Z,25.30
2018-05-31T14:04:34.253Z,25.30
2018-05-31T14:07:01.771Z,25.30
2018-05-31T14:09:29.305Z,25.30
2018-05-31T14:11:56.781Z,25.30
2018-05-31T14:14:24.312Z,25.30
2018-05-31T14:16:51.873Z,25.30
2018-05-31T14:19:19.379Z,25.30
2018-05-31T14:21:46.969Z,25.30
2018-05-31T14:24:14.465Z,25.30
2018-05-31T14:26:41.981Z,25.30
2018-05-31T14:29:09.506Z,25.30
2018-05-31T14:31:37.062Z,25.30
2018-05-31T14:34:05.362Z,25.30
2018-05-31T14:36:32.926Z,25.30
2018-05-31T14:39:01.294Z,25.30
2018-05-31T14:41:29.585Z,25.30
2018-05-31T14:43:57.157Z,25.30
2018-05-31T14:46:24.731Z,25.30
2018-05-31T14:48:53.016Z,25.30
2018-05-31T14:51:21.279Z,25.30
2018-05-31T14:53:48.796Z,25.30
2018-05-31T14:56:16.291Z,25.30
2018-05-31T14:58:43.875Z,25.30
2018-05-31T15:01:11.383Z,25.30
2018-05-31T15:03:38.921Z,25.30
2018-05-31T15:06:07.176Z,25.30
2018-05-31T15:08:35.461Z,25.30
2018-05-31T15:11:02.963Z,25.30
2018-05-31T15:13:30.478Z,25.30
2018-05-31T15:15:58.071Z,25.30
2018-05-31T15:18:25.572Z,25.30
2018-05-31T15:20:53.070Z,25.30
2018-05-31T15:23:20.568Z,25.40
2018-05-31T15:25:48.126Z,25.30
2018-05-31T15:28:15.700Z,25.40
2018-05-31T15:30:44.799Z,25.40
2018-05-31T15:33:12.362Z,25.40
2018-05-31T15:35:39.934Z,25.40
2018-05-31T15:38:07.478Z,25.40
2018-05-31T15:40:35.062Z,25.40
2018-05-31T15:43:02.568Z,25.50
2018-05-31T15:45:30.087Z,25.50
2018-05-31T15:47:57.574Z,25.50
2018-05-31T15:50:25.840Z,25.50
2018-05-31T15:52:53.336Z,25.50
2018-05-31T15:55:20.849Z,25.50
2018-05-31T15:57:48.360Z,25.50
2018-05-31T16:00:15.872Z,25.50
2018-05-31T16:02:43.446Z,25.50
2018-05-31T16:05:10.958Z,25.50
2018-05-31T16:07:38.494Z,25.50
2018-05-31T16:10:06.857Z,25.50
2018-05-31T16:12:34.431Z,25.50
2018-05-31T16:15:01.960Z,25.50
2018-05-31T16:17:29.547Z,25.50
2018-05-31T16:19:57.067Z,25.50
2018-05-31T16:22:25.425Z,25.50
2018-05-31T16:24:53.692Z,25.50
2018-05-31T16:27:21.173Z,25.40
2018-05-31T16:29:49.444Z,25.40
2018-05-31T16:32:16.947Z,25.40
2018-05-31T16:34:44.458Z,25.40
2018-05-31T16:37:11.949Z,25.40
2018-05-31T16:39:40.322Z,25.40
2018-05-31T16:42:07.883Z,25.40
2018-05-31T16:44:35.379Z,25.40
2018-05-31T16:47:02.920Z,25.40
2018-05-31T16:49:30.474Z,25.40
2018-05-31T16:51:57.962Z,25.40
2018-05-31T16:54:26.234Z,25.40
2018-05-31T16:56:53.800Z,25.40
2018-05-31T16:59:21.381Z,25.40
2018-05-31T17:01:48.923Z,25.40
2018-05-31T17:04:16.436Z,25.40
2018-05-31T17:06:43.954Z,25.40
2018-05-31T17:09:11.458Z,25.40
2018-05-31T17:11:39.077Z,25.40
2018-05-31T17:14:06.588Z,25.40
2018-05-31T17:16:34.098Z,25.40
2018-05-31T17:19:01.688Z,25.40
2018-05-31T17:21:29.250Z,25.40
2018-05-31T17:23:56.810Z,25.40
2018-05-31T17:26:24.354Z,25.40
2018-05-31T17:28:52.651Z,25.40
2018-05-31T17:31:20.228Z,25.40
2018-05-31T17:33:47.792Z,25.40
2018-05-31T17:36:15.310Z,25.40
2018-05-31T17:38:42.818Z,25.40
2018-05-31T17:41:11.092Z,25.40
2018-05-31T17:43:38.578Z,25.40
2018-05-31T17:46:06.847Z,25.50
2018-05-31T17:48:34.422Z,25.50
2018-05-31T17:51:01.950Z,25.50
2018-05-31T17:53:29.438Z,25.50
2018-05-31T17:55:56.942Z,25.50
2018-05-31T17:58:25.284Z,25.50
2018-05-31T18:00:53.544Z,25.50
2018-05-31T18:03:21.138Z,25.60
2018-05-31T18:05:48.710Z,25.60
2018-05-31T18:08:16.278Z,25.60
2018-05-31T18:10:43.841Z,25.60
2018-05-31T18:13:12.130Z,25.60
2018-05-31T18:15:40.406Z,25.60
2018-05-31T18:18:07.933Z,25.60
2018-05-31T18:20:35.528Z,25.60
2018-05-31T18:23:03.038Z,25.60
2018-05-31T18:25:30.542Z,25.60
2018-05-31T18:27:58.124Z,25.60
2018-05-31T18:30:25.702Z,25.70
2018-05-31T18:32:53.272Z,25.60
2018-05-31T18:35:21.553Z,25.70
2018-05-31T18:37:49.052Z,25.70
2018-05-31T18:40:16.553Z,25.70
2018-05-31T18:42:44.141Z,25.70
2018-05-31T18:45:11.675Z,25.70
2018-05-31T18:47:39.182Z,25.70
2018-05-31T18:50:07.454Z,25.70
2018-05-31T18:52:35.017Z,25.70
2018-05-31T18:55:02.599Z,25.70
2018-05-31T18:57:30.982Z,25.60
2018-05-31T18:59:59.354Z,25.70
2018-05-31T19:02:26.887Z,25.60
2018-05-31T19:04:54.401Z,25.60
2018-05-31T19:07:26.420Z,25.60
2018-05-31T19:09:54.028Z,25.60
2018-05-31T19:12:28.053Z,25.60
2018-05-31T19:14:56.353Z,25.60
2018-05-31T19:17:23.889Z,25.60
2018-05-31T19:19:54.940Z,25.60
2018-05-31T19:22:23.219Z,25.60
2018-05-31T19:24:57.049Z,25.60
2018-05-31T19:27:24.583Z,25.60
2018-05-31T19:29:52.117Z,25.60
2018-05-31T19:32:19.797Z,25.50
2018-05-31T19:34:48.060Z,25.50
2018-05-31T19:37:15.578Z,25.50
2018-05-31T19:39:43.901Z,25.50
2018-05-31T19:42:17.739Z,25.40
2018-05-31T19:44:45.258Z,25.40
2018-05-31T19:47:13.476Z,25.40
2018-05-31T19:49:40.967Z,25.40
2018-05-31T19:52:14.187Z,25.40
2018-05-31T19:54:42.537Z,25.30
2018-05-31T19:57:10.113Z,25.30
2018-05-31T19:59:43.223Z,25.30
2018-05-31T20:02:17.069Z,25.30
2018-05-31T20:04:44.570Z,25.30
2018-05-31T20:07:12.084Z,25.20
2018-05-31T20:09:39.603Z,25.20
2018-05-31T20:12:07.292Z,25.20
2018-05-31T20:14:35.615Z,25.20
2018-05-31T20:17:03.253Z,25.20
2018-05-31T20:19:30.777Z,25.10
2018-05-31T20:21:58.394Z,25.10
2018-05-31T20:24:25.913Z,25.10
2018-05-31T20:26:53.443Z,25.10
2018-05-31T20:29:21.077Z,25.10
2018-05-31T20:31:49.390Z,25.00
2018-05-31T20:34:17.045Z,25.00
2018-05-31T20:36:44.609Z,25.00
2018-05-31T20:39:12.137Z,25.00
2018-05-31T20:41:39.661Z,24.90
2018-05-31T20:44:07.278Z,25.00
2018-05-31T20:46:35.560Z,24.90
2018-05-31T20:49:04.315Z,24.90
2018-05-31T20:51:31.834Z,24.90
2018-05-31T20:53:59.409Z,24.90
2018-05-31T20:56:26.931Z,24.80
2018-05-31T20:58:54.457Z,24.80
2018-05-31T21:01:21.984Z,24.80
2018-05-31T21:03:50.273Z,24.80
2018-05-31T21:06:18.542Z,24.80
2018-05-31T21:08:46.911Z,24.70
2018-05-31T21:11:14.441Z,24.70
2018-05-31T21:13:42.084Z,24.70
2018-05-31T21:16:09.605Z,24.70
2018-05-31T21:18:37.122Z,24.70
2018-05-31T21:21:04.628Z,24.70
2018-05-31T21:23:32.171Z,24.60
2018-05-31T21:25:59.671Z,24.60
2018-05-31T21:28:27.248Z,24.60
2018-05-31T21:30:54.742Z,24.60
2018-05-31T21:33:22.261Z,24.50
2018-05-31T21:35:49.825Z,24.50
2018-05-31T21:38:18.921Z,24.50
2018-05-31T21:40:46.421Z,24.50
2018-05-31T21:43:14.785Z,24.40
2018-05-31T21:45:42.355Z,24.40
2018-05-31T21:48:10.639Z,24.40
2018-05-31T21:50:39.007Z,24.40
2018-05-31T21:53:06.489Z,24.40
2018-05-31T21:55:34.747Z,24.30
2018-05-31T21:58:02.342Z,24.30
2018-05-31T22:00:37.869Z,24.30
2018-05-31T22:03:05.439Z,24.20
2018-05-31T22:05:32.975Z,24.20
2018-05-31T22:08:00.563Z,24.10
2018-05-31T22:10:28.062Z,24.10
2018-05-31T22:12:56.417Z,24.00
2018-05-31T22:15:23.921Z,23.90
2018-05-31T22:17:51.447Z,23.90
2018-05-31T22:20:20.561Z,23.90
2018-05-31T22:22:48.823Z,23.80
2018-05-31T22:25:16.316Z,23.80
2018-05-31T22:27:44.592Z,23.70
2018-05-31T22:30:12.869Z,23.70
2018-05-31T22:32:41.241Z,23.70
2018-05-31T22:35:08.728Z,23.70
2018-05-31T22:37:37.079Z,23.60
2018-05-31T22:40:04.584Z,23.60
2018-05-31T22:42:32.119Z,23.50
2018-05-31T22:44:59.675Z,23.50
2018-05-31T22:47:27.172Z,23.40
2018-05-31T22:49:55.427Z,23.30
2018-05-31T22:52:22.993Z,23.30
2018-05-31T22:54:50.505Z,23.30
2018-05-31T22:57:18.022Z,23.30
2018-05-31T22:59:45.590Z,23.20
2018-05-31T23:02:13.081Z,23.20
2018-05-31T23:04:41.440Z,23.10
2018-05-31T23:07:09.007Z,23.10
2018-05-31T23:09:36.586Z,23.00
2018-05-31T23:12:04.077Z,23.00
2018-05-31T23:14:31.599Z,23.00
2018-05-31T23:16:59.085Z,22.90
2018-05-31T23:19:27.453Z,22.90
2018-05-31T23:21:55.839Z,22.90
2018-05-31T23:24:23.395Z,22.80
2018-05-31T23:26:50.905Z,22.90
2018-05-31T23:29:18.411Z,22.80
2018-05-31T23:31:45.997Z,22.80
2018-05-31T23:34:13.501Z,22.80
2018-05-31T23:36:41.020Z,22.80
2018-05-31T23:39:08.585Z,22.70
2018-05-31T23:41:36.143Z,22.70
2018-05-31T23:44:03.671Z,22.70
2018-05-31T23:46:31.162Z,22.70
2018-05-31T23:48:58.747Z,22.60
2018-05-31T23:51:26.254Z,22.60
2018-05-31T23:53:53.735Z,22.60
2018-05-31T23:56:21.336Z,22.60
2018-05-31T23:58:48.836Z,22.50
